Time;durP1;ratioP1;P1;durP2;ratioP2;P2;SDS_P1;SDS_P2;PMS_P1;PMS_P2;Temp;Humidity;BMP_temperature;BMP_pressure;BME280_temperature;BME280_humidity;BME280_pressure;Samples;Min_cycle;Max_cycle;Signal;HPM_P1;HPM_P2
2023/03/15 00:02:11;;;;;;;;;;;;;;;8.43;75.41;95243.99;109130;1274;23287;-80
2023/03/15 00:04:40;;;;;;;;;;;;;;;8.43;75.33;95244.64;109066;1274;24948;-80
2023/03/15 00:07:10;;;;;;;;;;;;;;;8.44;75.36;95248.75;109074;1266;22490;-80
2023/03/15 00:09:39;;;;;;;;;;;;;;;8.43;75.27;95246.75;109105;1267;23988;-80
2023/03/15 00:12:11;;;;;;;;;;;;;;;8.44;75.46;95253.49;109107;1274;22530;-80
2023/03/15 00:14:40;;;;;;;;;;;;;;;8.44;75.72;95258.88;109116;1274;23360;-80
2023/03/15 00:17:10;;;;;;;;;;;;;;;8.42;75.98;95268.30;109126;1272;25265;-80
2023/03/15 00:19:39;;;;;;;;;;;;;;;8.42;75.95;95273.06;109109;1274;22651;-80
2023/03/15 00:22:09;;;;;;;;;;;;;;;8.45;76.00;95278.73;109073;1274;25357;-80
2023/03/15 00:24:38;;;;;;;;;;;;;;;8.44;76.04;95279.11;109142;1272;25422;-80
2023/03/15 00:27:08;;;;;;;;;;;;;;;8.40;76.17;95285.69;109139;1272;22654;-80
2023/03/15 00:29:37;;;;;;;;;;;;;;;8.38;76.18;95284.93;109143;1272;22541;-80
2023/03/15 00:32:07;;;;;;;;;;;;;;;8.41;76.83;95295.11;109089;1266;25388;-80
2023/03/15 00:34:36;;;;;;;;;;;;;;;8.36;78.44;95317.02;109102;1262;22568;-80
2023/03/15 00:37:06;;;;;;;;;;;;;;;8.19;79.61;95333.29;109106;1273;22665;-80
2023/03/15 00:39:36;;;;;;;;;;;;;;;8.03;80.84;95348.06;109085;1266;22515;-80
2023/03/15 00:42:08;;;;;;;;;;;;;;;7.71;82.04;95373.95;109103;1274;22495;-81
2023/03/15 00:44:37;;;;;;;;;;;;;;;7.35;82.95;95368.44;109035;1274;22552;-82
2023/03/15 00:47:06;;;;;;;;;;;;;;;7.10;83.49;95382.35;109056;1274;22503;-81
2023/03/15 00:49:38;;;;;;;;;;;;;;;6.92;83.99;95393.92;109071;1274;22492;-82
2023/03/15 00:52:08;;;;;;;;;;;;;;;6.79;84.07;95407.52;109124;1272;22503;-82
2023/03/15 00:54:37;;;;;;;;;;;;;;;6.66;83.73;95413.02;109106;1272;25396;-81
2023/03/15 00:57:06;;;;;;;;;;;;;;;6.52;84.12;95426.98;109051;1272;22577;-81
2023/03/15 00:59:36;;;;;;;;;;;;;;;6.32;84.39;95440.14;109095;1274;23154;-81
2023/03/15 01:02:07;;;;;;;;;;;;;;;6.05;83.94;95461.04;109127;1270;22583;-80
2023/03/15 01:04:36;;;;;;;;;;;;;;;5.81;83.79;95455.48;109060;1274;23003;-81
2023/03/15 01:07:06;;;;;;;;;;;;;;;5.60;83.86;95456.38;109152;1267;22679;-81
2023/03/15 01:09:35;;;;;;;;;;;;;;;5.44;84.62;95466.96;109075;1273;22810;-80
2023/03/15 01:12:05;;;;;;;;;;;;;;;5.29;85.59;95476.81;109105;1274;22484;-81
2023/03/15 01:14:36;;;;;;;;;;;;;;;5.18;86.31;95473.41;109086;1274;22451;-80
2023/03/15 01:17:05;;;;;;;;;;;;;;;5.07;87.22;95488.04;109114;1273;22485;-80
2023/03/15 01:19:35;;;;;;;;;;;;;;;4.96;88.27;95493.19;109116;1267;22504;-80
2023/03/15 01:22:04;;;;;;;;;;;;;;;4.84;88.92;95491.45;109120;1274;22603;-80
2023/03/15 01:24:34;;;;;;;;;;;;;;;4.77;89.06;95475.61;109089;1273;22715;-80
2023/03/15 01:27:03;;;;;;;;;;;;;;;4.65;89.61;95496.50;109181;1273;22941;-80
2023/03/15 01:29:32;;;;;;;;;;;;;;;4.54;89.80;95499.80;109099;1272;22479;-80
2023/03/15 01:32:04;;;;;;;;;;;;;;;4.46;89.76;95498.48;109106;1274;22539;-80
2023/03/15 01:34:33;;;;;;;;;;;;;;;4.35;89.78;95506.86;109089;1270;22904;-80
2023/03/15 01:37:03;;;;;;;;;;;;;;;4.21;89.85;95504.41;109163;1274;22534;-80
2023/03/15 01:39:33;;;;;;;;;;;;;;;4.06;90.01;95515.45;109198;1266;22524;-80
2023/03/15 01:42:03;;;;;;;;;;;;;;;3.95;90.05;95528.98;109123;1273;22564;-79
2023/03/15 01:44:47;;;;;;;;;;;;;;;3.78;90.17;95545.18;109084;1274;23744;-80
2023/03/15 01:47:17;;;;;;;;;;;;;;;3.62;90.30;95556.00;109153;1274;22504;-79
2023/03/15 01:49:48;;;;;;;;;;;;;;;3.48;90.60;95553.19;109178;1274;22451;-80
2023/03/15 01:52:20;;;;;;;;;;;;;;;3.31;91.05;95572.17;109088;1273;22489;-80
2023/03/15 01:54:51;;;;;;;;;;;;;;;3.14;91.53;95575.92;109060;1274;22638;-80
2023/03/15 01:57:22;;;;;;;;;;;;;;;2.98;92.12;95584.50;109123;1274;22515;-80
2023/03/15 01:59:53;;;;;;;;;;;;;;;2.86;92.73;95602.30;109076;1273;22511;-79
2023/03/15 02:02:24;;;;;;;;;;;;;;;2.76;93.22;95605.08;109091;1273;22490;-80
2023/03/15 02:04:57;;;;;;;;;;;;;;;2.70;93.36;95591.17;109068;1272;53237;-79
2023/03/15 02:07:33;;;;;;;;;;;;;;;2.64;93.55;95599.08;109113;1274;22485;-80
2023/03/15 02:10:04;;;;;;;;;;;;;;;2.61;93.59;95602.52;109105;1274;22484;-80
2023/03/15 02:12:35;;;;;;;;;;;;;;;2.58;93.42;95604.45;109120;1274;23343;-80
2023/03/15 02:15:06;;;;;;;;;;;;;;;2.54;93.53;95614.25;109031;1262;65601;-80
2023/03/15 02:17:36;;;;;;;;;;;;;;;2.53;93.52;95624.17;109173;1271;22480;-81
2023/03/15 02:20:10;;;;;;;;;;;;;;;2.53;93.53;95627.93;109096;1272;22807;-80
2023/03/15 02:22:46;;;;;;;;;;;;;;;2.50;93.41;95635.03;109089;1274;22513;-79
2023/03/15 02:25:20;;;;;;;;;;;;;;;2.45;93.34;95637.73;109009;1272;54734;-80
2023/03/15 02:27:50;;;;;;;;;;;;;;;2.44;92.97;95638.25;109116;1272;22564;-80
2023/03/15 02:30:20;;;;;;;;;;;;;;;2.48;92.79;95646.27;109090;1274;22593;-81
2023/03/15 02:32:50;;;;;;;;;;;;;;;2.50;92.40;95656.54;109087;1274;23201;-80
2023/03/15 02:35:26;;;;;;;;;;;;;;;2.48;92.03;95666.25;109069;1274;22505;-80
2023/03/15 02:37:55;;;;;;;;;;;;;;;2.41;91.43;95675.05;109130;1266;22528;-80
2023/03/15 02:40:26;;;;;;;;;;;;;;;2.36;91.07;95675.05;109126;1274;22526;-80
2023/03/15 02:42:57;;;;;;;;;;;;;;;2.32;90.66;95686.64;109144;1272;22464;-80
2023/03/15 02:45:28;;;;;;;;;;;;;;;2.28;90.48;95686.98;109077;1272;22510;-79
2023/03/15 02:47:58;;;;;;;;;;;;;;;2.24;90.24;95689.55;109111;1274;25278;-79
2023/03/15 02:50:28;;;;;;;;;;;;;;;2.21;90.10;95695.42;109173;1269;25268;-79
2023/03/15 02:52:57;;;;;;;;;;;;;;;2.19;89.85;95698.13;109132;1269;22496;-80
2023/03/15 02:55:27;;;;;;;;;;;;;;;2.19;89.71;95704.09;109050;1274;22519;-80
2023/03/15 02:57:56;;;;;;;;;;;;;;;2.20;89.68;95704.14;109052;1266;25269;-79
2023/03/15 03:00:26;;;;;;;;;;;;;;;2.17;89.34;95714.16;109150;1274;22504;-80
2023/03/15 03:02:58;;;;;;;;;;;;;;;2.17;89.22;95723.10;109140;1274;22547;-80
2023/03/15 03:05:28;;;;;;;;;;;;;;;2.19;88.98;95727.41;109118;1269;22469;-80
2023/03/15 03:07:57;;;;;;;;;;;;;;;2.19;88.86;95738.86;109045;1273;152843;-80
2023/03/15 03:10:26;;;;;;;;;;;;;;;2.19;88.65;95734.52;109094;1274;25405;-80
2023/03/15 03:12:56;;;;;;;;;;;;;;;2.16;88.53;95737.48;109168;1272;22519;-80
2023/03/15 03:15:25;;;;;;;;;;;;;;;2.11;88.21;95740.70;109130;1274;22502;-79
2023/03/15 03:17:55;;;;;;;;;;;;;;;2.11;88.35;95734.58;109120;1273;22442;-80
2023/03/15 03:20:26;;;;;;;;;;;;;;;2.08;88.25;95737.85;109113;1266;23295;-80
2023/03/15 03:22:55;;;;;;;;;;;;;;;2.10;88.15;95741.58;109072;1274;22499;-80
2023/03/15 03:25:26;;;;;;;;;;;;;;;2.07;88.05;95738.52;109073;1274;22527;-80
2023/03/15 03:27:56;;;;;;;;;;;;;;;2.04;87.93;95744.88;109084;1274;22434;-80
2023/03/15 03:30:25;;;;;;;;;;;;;;;2.03;88.02;95757.63;109112;1274;22504;-80
2023/03/15 03:32:54;;;;;;;;;;;;;;;2.04;87.86;95762.65;109075;1272;22553;-80
2023/03/15 03:35:24;;;;;;;;;;;;;;;2.02;87.73;95760.02;109058;1274;22559;-80
2023/03/15 03:37:53;;;;;;;;;;;;;;;1.97;87.91;95758.33;109151;1275;22872;-79
2023/03/15 03:40:22;;;;;;;;;;;;;;;1.92;88.11;95769.05;109155;1274;22633;-80
2023/03/15 03:42:52;;;;;;;;;;;;;;;1.87;88.28;95766.28;109102;1274;22522;-80
2023/03/15 03:45:21;;;;;;;;;;;;;;;1.82;88.42;95768.35;109073;1274;25674;-80
2023/03/15 03:47:51;;;;;;;;;;;;;;;1.77;88.70;95777.08;109133;1274;22550;-80
2023/03/15 03:50:20;;;;;;;;;;;;;;;1.72;88.77;95770.44;109123;1274;25239;-80
2023/03/15 03:52:49;;;;;;;;;;;;;;;1.70;88.57;95778.62;109116;1274;22508;-80
2023/03/15 03:55:23;;;;;;;;;;;;;;;1.70;88.61;95781.80;109083;1274;25019;-80
2023/03/15 03:57:53;;;;;;;;;;;;;;;1.68;88.71;95772.87;109089;1274;22451;-80
2023/03/15 04:00:22;;;;;;;;;;;;;;;1.67;88.54;95768.89;109138;1266;22527;-79
2023/03/15 04:02:53;;;;;;;;;;;;;;;1.67;88.75;95772.80;109119;1274;22555;-81
2023/03/15 04:05:22;;;;;;;;;;;;;;;1.65;88.62;95771.13;109063;1274;24181;-80
2023/03/15 04:07:51;;;;;;;;;;;;;;;1.65;88.50;95784.70;109100;1274;22516;-80
2023/03/15 04:10:25;;;;;;;;;;;;;;;1.68;88.27;95792.06;109069;1274;22495;-80
2023/03/15 04:12:55;;;;;;;;;;;;;;;1.73;88.05;95796.52;109068;1274;22509;-80
2023/03/15 04:15:25;;;;;;;;;;;;;;;1.76;87.92;95791.80;109126;1273;22599;-80
2023/03/15 04:17:55;;;;;;;;;;;;;;;1.74;88.04;95793.52;109119;1273;22508;-80
2023/03/15 04:20:25;;;;;;;;;;;;;;;1.73;87.93;95795.21;109088;1274;22600;-80
2023/03/15 04:22:55;;;;;;;;;;;;;;;1.70;87.92;95802.29;109085;1274;22495;-80
2023/03/15 04:25:25;;;;;;;;;;;;;;;1.72;88.06;95804.92;108988;1274;60331;-80
2023/03/15 04:27:58;;;;;;;;;;;;;;;1.76;87.94;95811.40;109053;1274;22443;-80
2023/03/15 04:30:28;;;;;;;;;;;;;;;1.74;87.93;95812.38;109144;1273;22488;-80
2023/03/15 04:32:58;;;;;;;;;;;;;;;1.70;87.85;95807.35;109070;1274;22506;-80
2023/03/15 04:35:29;;;;;;;;;;;;;;;1.65;88.09;95808.52;109081;1274;22565;-80
2023/03/15 04:37:58;;;;;;;;;;;;;;;1.61;88.05;95809.90;109086;1271;22972;-80
2023/03/15 04:40:28;;;;;;;;;;;;;;;1.60;88.20;95811.51;109077;1274;22511;-80
2023/03/15 04:42:57;;;;;;;;;;;;;;;1.62;88.08;95814.77;109084;1274;25265;-80
2023/03/15 04:45:29;;;;;;;;;;;;;;;1.62;88.07;95823.42;109058;1274;22559;-80
2023/03/15 04:47:59;;;;;;;;;;;;;;;1.63;88.09;95825.59;109197;1273;22676;-80
2023/03/15 04:50:29;;;;;;;;;;;;;;;1.63;88.01;95828.98;109117;1263;22595;-80
2023/03/15 04:52:59;;;;;;;;;;;;;;;1.62;87.80;95836.13;109057;1267;22676;-80
2023/03/15 04:55:29;;;;;;;;;;;;;;;1.58;87.67;95836.56;109075;1274;22622;-79
2023/03/15 04:57:58;;;;;;;;;;;;;;;1.55;87.70;95839.12;109094;1267;24282;-80
2023/03/15 05:00:27;;;;;;;;;;;;;;;1.53;87.59;95845.88;109053;1274;22508;-80
2023/03/15 05:02:57;;;;;;;;;;;;;;;1.57;87.49;95852.63;109040;1273;25006;-81
2023/03/15 05:05:28;;;;;;;;;;;;;;;1.58;87.62;95852.08;109064;1271;22445;-80
2023/03/15 05:08:00;;;;;;;;;;;;;;;1.56;87.40;95851.04;109085;1272;23745;-81
2023/03/15 05:10:31;;;;;;;;;;;;;;;1.52;87.11;95857.77;109101;1273;22529;-80
2023/03/15 05:13:01;;;;;;;;;;;;;;;1.53;86.98;95861.48;109088;1274;22529;-81
2023/03/15 05:15:30;;;;;;;;;;;;;;;1.54;86.80;95866.09;109065;1274;25378;-80
2023/03/15 05:18:00;;;;;;;;;;;;;;;1.54;86.52;95870.70;109099;1274;22565;-81
2023/03/15 05:20:30;;;;;;;;;;;;;;;1.56;86.55;95880.10;109117;1273;22682;-80
2023/03/15 05:23:00;;;;;;;;;;;;;;;1.59;86.35;95884.16;109090;1267;22498;-80
2023/03/15 05:25:29;;;;;;;;;;;;;;;1.58;86.23;95881.21;109055;1274;22746;-82
2023/03/15 05:27:59;;;;;;;;;;;;;;;1.50;86.20;95890.19;109076;1274;22488;-80
2023/03/15 05:30:28;;;;;;;;;;;;;;;1.47;86.08;95887.42;109083;1267;22522;-80
2023/03/15 05:32:58;;;;;;;;;;;;;;;1.46;85.94;95883.19;109124;1270;26036;-81
2023/03/15 05:35:27;;;;;;;;;;;;;;;1.41;86.00;95888.80;109016;1268;28818;-80
2023/03/15 05:37:57;;;;;;;;;;;;;;;1.40;85.90;95891.85;109082;1274;23226;-80
2023/03/15 05:40:28;;;;;;;;;;;;;;;1.44;85.89;95905.45;109099;1274;22974;-80
2023/03/15 05:42:58;;;;;;;;;;;;;;;1.47;85.71;95909.16;109085;1273;22495;-80
2023/03/15 05:45:27;;;;;;;;;;;;;;;1.52;85.65;95916.74;109040;1273;42282;-80
2023/03/15 05:47:57;;;;;;;;;;;;;;;1.59;85.68;95921.77;109093;1274;22492;-80
2023/03/15 05:50:27;;;;;;;;;;;;;;;1.66;85.63;95922.52;109071;1273;22561;-80
2023/03/15 05:52:56;;;;;;;;;;;;;;;1.68;85.24;95927.02;109101;1273;23301;-80
2023/03/15 05:55:26;;;;;;;;;;;;;;;1.68;85.21;95928.75;108974;1274;105343;-80
2023/03/15 05:57:58;;;;;;;;;;;;;;;1.62;85.03;95936.40;109091;1266;22499;-81
2023/03/15 06:00:29;;;;;;;;;;;;;;;1.53;85.13;95942.67;109118;1274;22607;-80
2023/03/15 06:02:58;;;;;;;;;;;;;;;1.53;85.25;95953.52;109128;1270;23248;-80
2023/03/15 06:05:28;;;;;;;;;;;;;;;1.55;85.38;95963.63;109049;1271;42216;-80
2023/03/15 06:07:58;;;;;;;;;;;;;;;1.52;85.00;95965.34;109081;1274;22931;-80
2023/03/15 06:10:27;;;;;;;;;;;;;;;1.48;85.16;95971.44;109102;1273;22499;-80
2023/03/15 06:12:57;;;;;;;;;;;;;;;1.49;84.99;95970.86;109091;1274;22436;-80
2023/03/15 06:15:26;;;;;;;;;;;;;;;1.54;85.15;95971.67;109067;1267;31323;-80
2023/03/15 06:17:55;;;;;;;;;;;;;;;1.54;84.72;95974.23;109053;1273;22482;-80
2023/03/15 06:20:25;;;;;;;;;;;;;;;1.53;84.73;95971.77;109098;1274;23778;-80
2023/03/15 06:22:54;;;;;;;;;;;;;;;1.60;84.80;95975.60;109058;1267;22488;-80
2023/03/15 06:25:24;;;;;;;;;;;;;;;1.66;84.63;95979.88;109037;1274;44848;-80
2023/03/15 06:27:53;;;;;;;;;;;;;;;1.69;84.61;95980.05;109026;1274;24215;-80
2023/03/15 06:30:24;;;;;;;;;;;;;;;1.66;83.88;95984.69;109090;1267;23397;-81
2023/03/15 06:32:54;;;;;;;;;;;;;;;1.67;84.09;95983.55;109064;1274;22685;-80
2023/03/15 06:35:26;;;;;;;;;;;;;;;1.67;84.00;95986.52;109095;1267;27030;-80
2023/03/15 06:37:55;;;;;;;;;;;;;;;1.62;83.61;95998.27;109105;1273;24176;-80
2023/03/15 06:40:25;;;;;;;;;;;;;;;1.55;83.42;95989.10;109107;1270;23901;-80
2023/03/15 06:42:54;;;;;;;;;;;;;;;1.54;84.09;95996.18;109112;1267;22546;-80
2023/03/15 06:45:24;;;;;;;;;;;;;;;1.57;84.13;96008.27;108958;1274;112659;-80
2023/03/15 06:47:53;;;;;;;;;;;;;;;1.62;83.63;96008.39;109103;1274;22490;-80
2023/03/15 06:50:22;;;;;;;;;;;;;;;1.61;83.26;96015.21;109096;1267;22564;-80
2023/03/15 06:52:52;;;;;;;;;;;;;;;1.62;83.55;96024.11;109118;1271;22551;-80
2023/03/15 06:55:21;;;;;;;;;;;;;;;1.63;83.58;96024.36;109067;1254;26882;-79
2023/03/15 06:57:51;;;;;;;;;;;;;;;1.70;83.86;96025.45;109080;1274;23245;-80
2023/03/15 07:00:21;;;;;;;;;;;;;;;1.73;83.66;96029.60;109069;1275;22524;-80
2023/03/15 07:02:51;;;;;;;;;;;;;;;1.74;83.71;96030.23;109108;1264;22543;-80
2023/03/15 07:05:20;;;;;;;;;;;;;;;1.69;83.60;96031.49;109071;1268;22905;-80
2023/03/15 07:07:50;;;;;;;;;;;;;;;1.68;83.74;96043.61;109088;1275;22569;-80
2023/03/15 07:10:20;;;;;;;;;;;;;;;1.75;83.49;96043.21;109103;1273;22434;-80
2023/03/15 07:12:49;;;;;;;;;;;;;;;1.80;83.61;96041.81;109066;1274;22533;-80
2023/03/15 07:15:19;;;;;;;;;;;;;;;1.75;83.36;96041.44;109034;1270;66655;-80
2023/03/15 07:17:48;;;;;;;;;;;;;;;1.74;83.38;96044.29;109067;1274;22496;-80
2023/03/15 07:20:18;;;;;;;;;;;;;;;1.72;83.78;96051.69;109082;1274;25087;-80
2023/03/15 07:22:48;;;;;;;;;;;;;;;1.67;83.56;96056.96;109066;1275;22492;-82
2023/03/15 07:25:22;;;;;;;;;;;;;;;1.64;83.35;96063.24;109075;1267;22627;-82
2023/03/15 07:27:52;;;;;;;;;;;;;;;1.67;83.39;96055.50;109103;1273;22487;-82
2023/03/15 07:30:21;;;;;;;;;;;;;;;1.70;83.34;96055.47;109079;1274;25427;-82
2023/03/15 07:32:51;;;;;;;;;;;;;;;1.72;83.38;96051.90;109092;1273;22502;-81
2023/03/15 07:35:22;;;;;;;;;;;;;;;1.63;83.16;96056.32;109068;1267;22503;-82
2023/03/15 07:37:51;;;;;;;;;;;;;;;1.62;83.30;96061.16;109093;1274;22596;-82
2023/03/15 07:40:21;;;;;;;;;;;;;;;1.61;83.18;96059.17;109062;1274;24244;-82
2023/03/15 07:42:50;;;;;;;;;;;;;;;1.68;83.52;96064.60;109108;1268;22502;-82
2023/03/15 07:45:19;;;;;;;;;;;;;;;1.79;83.57;96067.58;109091;1273;22515;-82
2023/03/15 07:47:49;;;;;;;;;;;;;;;1.90;83.56;96072.20;109084;1270;22526;-82
2023/03/15 07:50:19;;;;;;;;;;;;;;;1.96;83.09;96070.36;109078;1270;22618;-82
2023/03/15 07:52:48;;;;;;;;;;;;;;;1.98;83.08;96075.75;109131;1273;22559;-81
2023/03/15 07:55:18;;;;;;;;;;;;;;;2.08;83.40;96078.98;109089;1274;22534;-82
2023/03/15 07:57:47;;;;;;;;;;;;;;;2.14;82.68;96082.02;109124;1273;22423;-81
2023/03/15 08:00:17;;;;;;;;;;;;;;;2.08;82.32;96083.36;109099;1274;23253;-82
2023/03/15 08:02:46;;;;;;;;;;;;;;;2.04;82.07;96080.23;109100;1269;22488;-82
2023/03/15 08:05:17;;;;;;;;;;;;;;;2.08;81.69;96087.33;109093;1266;25917;-81
2023/03/15 08:07:47;;;;;;;;;;;;;;;2.06;81.15;96091.28;109056;1274;22546;-81
2023/03/15 08:10:16;;;;;;;;;;;;;;;2.09;81.33;96092.59;109096;1273;24360;-81
2023/03/15 08:12:46;;;;;;;;;;;;;;;2.09;80.59;96093.54;109078;1274;24254;-81
2023/03/15 08:15:16;;;;;;;;;;;;;;;2.10;80.55;96096.77;109070;1267;24282;-81
2023/03/15 08:18:01;;;;;;;;;;;;;;;2.06;80.16;96092.08;109113;1274;22485;-81
2023/03/15 08:20:32;;;;;;;;;;;;;;;2.01;79.45;96088.35;109073;1267;22514;-81
2023/03/15 08:23:02;;;;;;;;;;;;;;;2.07;79.83;96096.69;109101;1274;22505;-81
2023/03/15 08:25:32;;;;;;;;;;;;;;;2.23;80.10;96095.06;109049;1266;22569;-80
2023/03/15 08:28:01;;;;;;;;;;;;;;;2.35;79.79;96093.89;109124;1274;22529;-81
2023/03/15 08:30:31;;;;;;;;;;;;;;;2.41;79.34;96093.67;109049;1267;23737;-80
2023/03/15 08:33:00;;;;;;;;;;;;;;;2.49;79.54;96095.77;109083;1274;25396;-80
2023/03/15 08:35:31;;;;;;;;;;;;;;;2.60;79.30;96097.02;109101;1272;22461;-81
2023/03/15 08:38:01;;;;;;;;;;;;;;;2.62;78.70;96098.52;109101;1273;22911;-80
2023/03/15 08:40:32;;;;;;;;;;;;;;;2.55;77.93;96102.20;109107;1267;22457;-80
2023/03/15 08:43:04;;;;;;;;;;;;;;;2.49;77.86;96104.45;109128;1273;22695;-80
2023/03/15 08:45:34;;;;;;;;;;;;;;;2.46;77.57;96114.20;109046;1273;25413;-81
2023/03/15 08:48:03;;;;;;;;;;;;;;;2.53;77.51;96119.00;109124;1273;22504;-80
2023/03/15 08:50:33;;;;;;;;;;;;;;;2.68;77.72;96114.69;109111;1267;25250;-80
2023/03/15 08:53:03;;;;;;;;;;;;;;;2.90;77.77;96118.60;109071;1273;22504;-80
2023/03/15 08:55:32;;;;;;;;;;;;;;;2.99;76.63;96123.12;109040;1273;41131;-80
2023/03/15 08:58:02;;;;;;;;;;;;;;;2.97;75.34;96116.23;109081;1269;22514;-80
2023/03/15 09:00:32;;;;;;;;;;;;;;;2.87;75.78;96127.78;109092;1274;24218;-80
2023/03/15 09:03:01;;;;;;;;;;;;;;;2.95;75.94;96124.59;109108;1267;23310;-80
2023/03/15 09:05:31;;;;;;;;;;;;;;;3.02;75.48;96128.45;109048;1267;37215;-80
2023/03/15 09:08:00;;;;;;;;;;;;;;;3.06;75.95;96136.71;109089;1274;22497;-80
2023/03/15 09:10:30;;;;;;;;;;;;;;;3.18;75.97;96142.48;109114;1267;24329;-80
2023/03/15 09:12:59;;;;;;;;;;;;;;;3.13;74.42;96141.21;109099;1273;22555;-80
2023/03/15 09:15:29;;;;;;;;;;;;;;;3.00;74.45;96145.98;109035;1268;44810;-80
2023/03/15 09:17:58;;;;;;;;;;;;;;;2.96;74.03;96143.45;109070;1274;23132;-80
2023/03/15 09:20:28;;;;;;;;;;;;;;;2.88;73.50;96145.75;109084;1267;22576;-80
2023/03/15 09:22:58;;;;;;;;;;;;;;;2.83;73.81;96145.58;109069;1273;24388;-80
2023/03/15 09:25:27;;;;;;;;;;;;;;;2.80;73.41;96150.54;109054;1269;71293;-80
2023/03/15 09:27:57;;;;;;;;;;;;;;;2.83;73.43;96148.71;109135;1273;22516;-80
2023/03/15 09:30:27;;;;;;;;;;;;;;;2.88;73.73;96150.52;109067;1266;22533;-80
2023/03/15 09:32:57;;;;;;;;;;;;;;;2.96;73.19;96147.85;109048;1273;24200;-80
2023/03/15 09:35:28;;;;;;;;;;;;;;;3.06;73.34;96155.68;109064;1266;51289;-80
2023/03/15 09:37:58;;;;;;;;;;;;;;;3.12;73.07;96153.20;109119;1267;22498;-80
2023/03/15 09:40:29;;;;;;;;;;;;;;;3.24;73.69;96158.80;109112;1266;24258;-80
2023/03/15 09:43:04;;;;;;;;;;;;;;;3.36;72.38;96163.26;109081;1273;24453;-80
2023/03/15 09:45:41;;;;;;;;;;;;;;;3.35;72.47;96159.34;109036;1273;40332;-80
2023/03/15 09:48:13;;;;;;;;;;;;;;;3.44;72.70;96169.38;109089;1274;27187;-80
2023/03/15 09:50:45;;;;;;;;;;;;;;;3.51;71.85;96169.52;109103;1268;22617;-80
2023/03/15 09:53:17;;;;;;;;;;;;;;;3.40;70.68;96173.84;109068;1270;22499;-80
2023/03/15 09:55:48;;;;;;;;;;;;;;;3.27;71.08;96174.05;109019;1267;65068;-80
2023/03/15 09:58:21;;;;;;;;;;;;;;;3.31;70.85;96176.28;109097;1273;22500;-80
2023/03/15 10:00:52;;;;;;;;;;;;;;;3.37;71.15;96179.61;109138;1273;22483;-80
2023/03/15 10:03:27;;;;;;;;;;;;;;;3.49;70.83;96176.14;109122;1263;22832;-81
2023/03/15 10:05:58;;;;;;;;;;;;;;;3.40;69.77;96168.59;109042;1273;45392;-81
2023/03/15 10:08:28;;;;;;;;;;;;;;;3.20;68.63;96173.33;109104;1273;22451;-81
2023/03/15 10:11:05;;;;;;;;;;;;;;;3.15;69.58;96180.52;109106;1273;23242;-81
2023/03/15 10:13:42;;;;;;;;;;;;;;;3.32;69.77;96183.85;109107;1266;22566;-81
2023/03/15 10:16:23;;;;;;;;;;;;;;;3.49;69.70;96183.48;109061;1271;34540;-81
2023/03/15 10:19:02;;;;;;;;;;;;;;;3.52;68.52;96191.28;109126;1268;23251;-81
2023/03/15 10:21:37;;;;;;;;;;;;;;;3.51;69.33;96194.67;109089;1273;24031;-81
2023/03/15 10:24:12;;;;;;;;;;;;;;;3.54;68.38;96196.92;109096;1270;24273;-81
2023/03/15 10:26:43;;;;;;;;;;;;;;;3.36;67.33;96194.70;109103;1273;23377;-81
2023/03/15 10:29:14;;;;;;;;;;;;;;;3.22;67.08;96187.75;109106;1273;25211;-81
2023/03/15 10:31:46;;;;;;;;;;;;;;;3.04;66.39;96195.88;109107;1267;22608;-80
2023/03/15 10:34:16;;;;;;;;;;;;;;;2.93;66.80;96209.29;109011;1267;99822;-80
2023/03/15 10:36:48;;;;;;;;;;;;;;;3.06;68.07;96208.84;109105;1274;22487;-80
2023/03/15 10:39:18;;;;;;;;;;;;;;;3.36;68.25;96210.40;109109;1273;24423;-80
2023/03/15 10:41:48;;;;;;;;;;;;;;;3.56;67.70;96209.58;109089;1262;22536;-81
2023/03/15 10:44:19;;;;;;;;;;;;;;;3.59;66.09;96208.36;109023;1273;58800;-81
2023/03/15 10:47:02;;;;;;;;;;;;;;;3.43;65.36;96211.73;109094;1266;22500;-80
2023/03/15 10:49:36;;;;;;;;;;;;;;;3.42;65.93;96201.73;109119;1273;22551;-80
2023/03/15 10:52:06;;;;;;;;;;;;;;;3.39;65.06;96214.70;109094;1273;23664;-81
2023/03/15 10:54:35;;;;;;;;;;;;;;;3.53;66.37;96222.32;109053;1273;38140;-80
2023/03/15 10:57:06;;;;;;;;;;;;;;;3.79;65.78;96226.05;109079;1273;22457;-80
2023/03/15 10:59:35;;;;;;;;;;;;;;;4.02;65.83;96219.77;109064;1273;23744;-80
2023/03/15 11:02:19;;;;;;;;;;;;;;;4.25;65.67;96220.16;109095;1273;24049;-81
2023/03/15 11:04:50;;;;;;;;;;;;;;;4.40;65.18;96221.30;107581;1267;2015769;-81
2023/03/15 11:07:19;;;;;;;;;;;;;;;4.47;64.60;96216.95;109111;1273;25270;-81
2023/03/15 11:09:53;;;;;;;;;;;;;;;4.25;63.02;96214.48;109046;1273;23466;-81
2023/03/15 11:12:24;;;;;;;;;;;;;;;4.11;64.03;96210.84;109100;1273;22432;-81
2023/03/15 11:14:58;;;;;;;;;;;;;;;4.10;63.99;96211.15;109034;1273;64875;-82
2023/03/15 11:17:29;;;;;;;;;;;;;;;4.05;63.76;96214.65;109095;1273;22478;-81
2023/03/15 11:20:09;;;;;;;;;;;;;;;3.94;63.30;96205.05;109108;1273;22513;-81
2023/03/15 11:22:39;;;;;;;;;;;;;;;3.86;63.80;96199.30;109077;1273;24987;-80
2023/03/15 11:25:13;;;;;;;;;;;;;;;3.84;63.39;96213.80;109056;1267;32959;-81
2023/03/15 11:27:45;;;;;;;;;;;;;;;3.86;63.06;96214.28;109081;1273;22450;-81
2023/03/15 11:30:16;;;;;;;;;;;;;;;4.00;64.06;96222.41;109083;1273;22495;-80
2023/03/15 11:32:46;;;;;;;;;;;;;;;4.20;63.75;96222.63;109107;1269;23663;-81
2023/03/15 11:35:19;;;;;;;;;;;;;;;4.26;63.47;96220.34;109050;1273;36617;-80
2023/03/15 11:37:52;;;;;;;;;;;;;;;4.22;63.31;96221.28;109086;1267;22524;-80
2023/03/15 11:40:23;;;;;;;;;;;;;;;4.08;62.59;96224.38;109092;1273;24180;-80
2023/03/15 11:42:56;;;;;;;;;;;;;;;4.11;63.47;96227.36;109084;1267;22510;-80
2023/03/15 11:45:29;;;;;;;;;;;;;;;4.19;62.91;96227.80;109089;1273;59299;-80
2023/03/15 11:48:03;;;;;;;;;;;;;;;4.07;62.01;96231.30;109110;1269;22525;-80
2023/03/15 11:50:32;;;;;;;;;;;;;;;3.98;61.79;96228.37;109122;1273;24213;-79
2023/03/15 11:53:05;;;;;;;;;;;;;;;3.71;60.95;96225.63;109097;1270;22565;-80
2023/03/15 11:55:35;;;;;;;;;;;;;;;3.53;61.80;96236.13;109083;1270;63659;-80
2023/03/15 11:58:18;;;;;;;;;;;;;;;3.61;62.20;96236.98;109120;1273;22456;-80
2023/03/15 12:00:53;;;;;;;;;;;;;;;3.63;62.01;96240.32;109143;1273;24414;-80
2023/03/15 12:03:39;;;;;;;;;;;;;;;3.65;62.12;96237.36;109106;1266;22485;-80
2023/03/15 12:06:25;;;;;;;;;;;;;;;3.65;61.36;96242.92;109085;1271;32693;-80
2023/03/15 12:08:55;;;;;;;;;;;;;;;3.67;61.10;96238.48;109060;1267;22504;-80
2023/03/15 12:11:41;;;;;;;;;;;;;;;3.62;61.20;96233.39;109131;1269;22463;-80
2023/03/15 12:14:25;;;;;;;;;;;;;;;3.63;61.05;96231.62;109054;1267;23770;-80
2023/03/15 12:16:57;;;;;;;;;;;;;;;3.68;60.57;96225.88;109045;1266;24192;-80
2023/03/15 12:19:27;;;;;;;;;;;;;;;3.63;59.85;96219.71;109059;1273;22524;-79
2023/03/15 12:21:58;;;;;;;;;;;;;;;3.60;61.17;96236.36;109123;1269;22484;-80
2023/03/15 12:24:30;;;;;;;;;;;;;;;3.79;61.20;96232.81;109107;1266;51317;-80
2023/03/15 12:27:01;;;;;;;;;;;;;;;3.74;59.91;96226.30;109110;1273;22492;-80
2023/03/15 12:29:31;;;;;;;;;;;;;;;3.59;59.86;96230.73;109117;1267;24239;-80
2023/03/15 12:32:08;;;;;;;;;;;;;;;3.63;59.94;96230.98;109122;1273;22512;-80
2023/03/15 12:34:44;;;;;;;;;;;;;;;3.72;59.24;96229.38;109084;1266;30904;-80
2023/03/15 12:37:18;;;;;;;;;;;;;;;3.71;59.63;96236.34;109091;1266;22497;-79
2023/03/15 12:39:50;;;;;;;;;;;;;;;3.96;60.10;96232.49;109097;1270;23247;-80
2023/03/15 12:42:38;;;;;;;;;;;;;;;4.16;59.88;96236.02;109061;1271;22488;-80
2023/03/15 12:45:23;;;;;;;;;;;;;;;4.17;57.70;96231.30;109064;1266;38067;-80
2023/03/15 12:48:08;;;;;;;;;;;;;;;3.99;57.93;96239.66;109025;1273;22500;-80
2023/03/15 12:50:39;;;;;;;;;;;;;;;4.04;58.29;96242.59;109096;1273;22522;-80
2023/03/15 12:53:15;;;;;;;;;;;;;;;4.06;58.36;96242.46;109094;1266;22491;-80
2023/03/15 12:55:46;;;;;;;;;;;;;;;4.22;58.88;96240.85;109026;1273;32907;-80
2023/03/15 12:58:17;;;;;;;;;;;;;;;4.45;59.29;96241.61;109148;1266;22533;-80
2023/03/15 13:00:47;;;;;;;;;;;;;;;4.56;58.14;96241.45;109123;1273;22530;-80
2023/03/15 13:03:20;;;;;;;;;;;;;;;4.47;58.00;96239.16;109123;1266;22538;-80
2023/03/15 13:05:57;;;;;;;;;;;;;;;4.43;57.80;96228.26;109099;1269;40173;-80